createdAt,value
2022-08-19T00:08:42.930Z,23.47
2022-08-19T00:18:46.262Z,23.35
2022-08-19T00:28:49.287Z,23.12
2022-08-19T00:38:54.364Z,23.51
2022-08-19T00:48:58.788Z,23.42
2022-08-19T00:59:03.203Z,23.29
2022-08-19T01:09:06.902Z,23.14
2022-08-19T01:19:32.730Z,22.35
2022-08-19T01:29:47.504Z,22.54
2022-08-19T01:39:51.363Z,22.48
2022-08-19T01:49:54.473Z,22.88
2022-08-19T01:59:57.910Z,22.86
2022-08-19T02:10:10.523Z,22.72
2022-08-19T02:20:15.971Z,22.84
2022-08-19T02:30:20.046Z,22.45
2022-08-19T02:40:23.110Z,22.63
2022-08-19T02:50:26.782Z,22.36
2022-08-19T03:00:29.843Z,22.54
2022-08-19T03:10:33.890Z,22.53
2022-08-19T03:20:51.356Z,22.43
2022-08-19T03:31:41.873Z,22.35
2022-08-19T03:41:45.857Z,22.29
2022-08-19T03:51:51.361Z,22.18
2022-08-19T04:01:57.028Z,22.25
2022-08-19T04:12:00.168Z,22.34
2022-08-19T04:22:04.455Z,22.30
2022-08-19T04:32:08.379Z,22.28
2022-08-19T04:42:48.930Z,22.30
2022-08-19T04:52:52.823Z,22.49
2022-08-19T05:03:00.313Z,22.97
2022-08-19T05:13:05.656Z,23.29
2022-08-19T05:23:13.391Z,23.58
2022-08-19T05:33:25.593Z,23.94
2022-08-19T05:43:28.656Z,24.17
2022-08-19T05:53:31.628Z,25.01
2022-08-19T06:03:35.133Z,25.47
2022-08-19T06:13:38.095Z,25.79
2022-08-19T06:23:41.553Z,26.46
2022-08-19T06:33:46.021Z,26.90
2022-08-19T06:43:49.942Z,26.91
2022-08-19T06:53:57.156Z,27.94
2022-08-19T07:04:01.558Z,28.52
2022-08-19T07:14:05.299Z,28.80
2022-08-19T07:24:09.618Z,29.22
2022-08-19T07:34:15.766Z,29.85
2022-08-19T07:44:21.707Z,30.21
2022-08-19T07:54:26.773Z,30.31
2022-08-19T08:04:49.740Z,31.05
2022-08-19T08:14:55.970Z,32.02
2022-08-19T08:25:04.127Z,32.34
2022-08-19T08:35:13.132Z,32.70
2022-08-19T08:45:19.009Z,32.83
2022-08-19T08:55:27.513Z,33.36
2022-08-19T09:05:52.164Z,33.80
2022-08-19T09:16:04.365Z,33.74
2022-08-19T09:26:10.404Z,33.61
2022-08-19T09:36:24.338Z,34.12
2022-08-19T09:46:38.537Z,34.47
2022-08-19T09:56:42.369Z,35.33
2022-08-19T10:06:46.994Z,34.69
2022-08-19T10:16:52.761Z,35.97
2022-08-19T10:26:59.725Z,35.47
2022-08-19T10:37:10.750Z,36.44
2022-08-19T10:47:17.666Z,37.23
2022-08-19T10:57:52.259Z,37.10
2022-08-19T11:07:55.737Z,36.73
2022-08-19T11:17:58.925Z,37.19
2022-08-19T11:28:02.127Z,37.40
2022-08-19T11:38:09.427Z,37.87
2022-08-19T11:48:13.059Z,37.71
2022-08-19T11:58:19.023Z,37.85
2022-08-19T12:08:22.591Z,37.58
2022-08-19T12:18:26.158Z,37.57
2022-08-19T12:28:29.846Z,38.26
2022-08-19T12:38:35.689Z,37.93
2022-08-19T12:48:42.916Z,38.36
2022-08-19T12:58:48.956Z,38.15
2022-08-19T13:08:59.383Z,37.79
2022-08-19T13:19:05.205Z,37.52
2022-08-19T13:29:27.255Z,37.36
2022-08-19T13:39:34.418Z,37.11
2022-08-19T13:49:37.487Z,37.37
2022-08-19T13:59:40.517Z,36.15
2022-08-19T14:09:43.864Z,36.49
2022-08-19T14:19:49.373Z,36.09
2022-08-19T14:29:53.354Z,35.40
2022-08-19T14:39:56.864Z,35.01
2022-08-19T14:50:00.159Z,35.35
2022-08-19T15:00:07.478Z,34.89
2022-08-19T15:10:13.114Z,34.64
2022-08-19T15:20:22.332Z,34.64
2022-08-19T15:30:28.205Z,34.23
2022-08-19T15:40:31.865Z,34.17
2022-08-19T15:50:35.919Z,34.14
2022-08-19T16:00:57.958Z,33.80
2022-08-19T16:11:01.369Z,33.52
2022-08-19T16:21:06.812Z,33.18
2022-08-19T16:31:11.463Z,33.06
2022-08-19T16:41:14.923Z,32.85
2022-08-19T16:51:18.790Z,32.59
2022-08-19T17:01:23.021Z,32.25
2022-08-19T17:11:29.132Z,31.86
2022-08-19T17:21:41.950Z,31.44
2022-08-19T17:31:47.233Z,31.07
2022-08-19T17:41:50.559Z,30.75
2022-08-19T17:51:53.747Z,30.20
2022-08-19T18:01:57.047Z,30.02
2022-08-19T18:12:01.301Z,29.21
2022-08-19T18:22:06.737Z,28.95
2022-08-19T18:32:24.053Z,28.79
2022-08-19T18:42:46.730Z,28.68
2022-08-19T18:52:49.658Z,28.41
2022-08-19T19:02:54.637Z,28.08
2022-08-19T19:12:57.959Z,28.11
2022-08-19T19:23:01.162Z,27.92
2022-08-19T19:33:05.648Z,27.70
2022-08-19T19:43:08.992Z,27.60
2022-08-19T19:53:13.242Z,27.01
2022-08-19T20:03:20.589Z,26.49
2022-08-19T20:13:24.296Z,26.18
2022-08-19T20:23:27.399Z,26.18
2022-08-19T20:33:31.489Z,26.07
2022-08-19T20:43:34.678Z,26.17
2022-08-19T20:53:39.219Z,25.71
2022-08-19T21:03:43.461Z,25.73
2022-08-19T21:13:46.892Z,25.78
2022-08-19T21:23:50.135Z,25.69
2022-08-19T21:33:53.122Z,25.26
2022-08-19T21:43:56.201Z,25.61
2022-08-19T21:53:59.209Z,25.55
2022-08-19T22:04:02.683Z,25.26
2022-08-19T22:14:05.800Z,25.00
2022-08-19T22:24:10.806Z,25.02
2022-08-19T22:34:14.090Z,24.64
2022-08-19T22:44:17.818Z,24.37
2022-08-19T22:54:20.889Z,24.78
2022-08-19T23:04:23.908Z,24.44
2022-08-19T23:14:26.902Z,24.47
2022-08-19T23:24:29.911Z,24.52
2022-08-19T23:34:32.929Z,24.35
2022-08-19T23:44:35.925Z,24.47
2022-08-19T23:54:54.840Z,24.63
